sensor_id;sensor_type;location;lat;lon;timestamp;pressure;altitude;pressure_sealevel;temperature;humidity
16030;BME280;34770;49.272;11.070;2023-04-25T00:02:21;96990.75;;;8.32;75.11
16030;BME280;34770;49.272;11.070;2023-04-25T00:04:47;97000.97;;;8.28;74.65
16030;BME280;34770;49.272;11.070;2023-04-25T00:07:14;96993.28;;;8.14;75.11
16030;BME280;34770;49.272;11.070;2023-04-25T00:09:41;97002.50;;;8.11;74.54
16030;BME280;34770;49.272;11.070;2023-04-25T00:12:07;97001.78;;;8.09;73.73
16030;BME280;34770;49.272;11.070;2023-04-25T00:14:33;97007.06;;;8.11;73.73
16030;BME280;34770;49.272;11.070;2023-04-25T00:17:01;97001.66;;;8.01;73.63
16030;BME280;34770;49.272;11.070;2023-04-25T00:19:28;96989.16;;;8.00;74.05
16030;BME280;34770;49.272;11.070;2023-04-25T00:21:56;96996.97;;;8.03;73.35
16030;BME280;34770;49.272;11.070;2023-04-25T00:24:22;97007.03;;;7.92;74.39
16030;BME280;34770;49.272;11.070;2023-04-25T00:26:48;97002.91;;;7.97;74.08
16030;BME280;34770;49.272;11.070;2023-04-25T00:29:13;97000.25;;;8.07;73.87
16030;BME280;34770;49.272;11.070;2023-04-25T00:31:39;97008.34;;;8.07;73.96
16030;BME280;34770;49.272;11.070;2023-04-25T00:34:06;96998.25;;;8.09;73.67
16030;BME280;34770;49.272;11.070;2023-04-25T00:36:31;96997.97;;;8.02;74.02
16030;BME280;34770;49.272;11.070;2023-04-25T00:38:57;96999.09;;;8.09;74.32
16030;BME280;34770;49.272;11.070;2023-04-25T00:41:24;96993.44;;;8.12;73.64
16030;BME280;34770;49.272;11.070;2023-04-25T00:43:51;96993.56;;;8.01;73.97
16030;BME280;34770;49.272;11.070;2023-04-25T00:46:17;96997.97;;;8.12;73.68
16030;BME280;34770;49.272;11.070;2023-04-25T00:48:42;96982.06;;;8.09;73.62
16030;BME280;34770;49.272;11.070;2023-04-25T00:51:09;96988.00;;;8.03;73.30
16030;BME280;34770;49.272;11.070;2023-04-25T00:53:39;96983.78;;;8.10;73.42
16030;BME280;34770;49.272;11.070;2023-04-25T00:56:05;96970.41;;;8.08;73.37
16030;BME280;34770;49.272;11.070;2023-04-25T00:58:31;96978.94;;;8.23;73.42
16030;BME280;34770;49.272;11.070;2023-04-25T01:00:57;96975.72;;;8.29;73.73
16030;BME280;34770;49.272;11.070;2023-04-25T01:03:23;96970.31;;;8.29;73.19
16030;BME280;34770;49.272;11.070;2023-04-25T01:05:49;96975.72;;;8.29;72.52
16030;BME280;34770;49.272;11.070;2023-04-25T01:08:16;96973.16;;;8.37;72.41
16030;BME280;34770;49.272;11.070;2023-04-25T01:10:41;96982.97;;;8.38;72.89
16030;BME280;34770;49.272;11.070;2023-04-25T01:13:07;96974.16;;;8.36;73.22
16030;BME280;34770;49.272;11.070;2023-04-25T01:15:33;96974.84;;;8.29;74.19
16030;BME280;34770;49.272;11.070;2023-04-25T01:17:58;96969.34;;;8.30;73.69
16030;BME280;34770;49.272;11.070;2023-04-25T01:20:26;96975.72;;;8.29;74.38
16030;BME280;34770;49.272;11.070;2023-04-25T01:22:53;96973.00;;;8.20;73.57
16030;BME280;34770;49.272;11.070;2023-04-25T01:25:21;96965.47;;;8.13;74.09
16030;BME280;34770;49.272;11.070;2023-04-25T01:27:47;96954.63;;;7.94;74.41
16030;BME280;34770;49.272;11.070;2023-04-25T01:30:13;96969.25;;;7.92;73.32
16030;BME280;34770;49.272;11.070;2023-04-25T01:32:39;96965.84;;;7.90;74.23
16030;BME280;34770;49.272;11.070;2023-04-25T01:35:07;96969.97;;;8.03;74.69
16030;BME280;34770;49.272;11.070;2023-04-25T01:37:42;96979.63;;;8.06;74.95
16030;BME280;34770;49.272;11.070;2023-04-25T01:40:09;96980.09;;;8.11;75.44
16030;BME280;34770;49.272;11.070;2023-04-25T01:42:37;96969.88;;;8.05;74.93
16030;BME280;34770;49.272;11.070;2023-04-25T01:45:03;96985.91;;;8.16;75.05
16030;BME280;34770;49.272;11.070;2023-04-25T01:47:29;96985.19;;;8.14;75.44
16030;BME280;34770;49.272;11.070;2023-04-25T01:49:55;96984.34;;;8.13;75.27
16030;BME280;34770;49.272;11.070;2023-04-25T01:52:20;96959.63;;;7.99;75.37
16030;BME280;34770;49.272;11.070;2023-04-25T01:54:46;96981.06;;;8.10;75.93
16030;BME280;34770;49.272;11.070;2023-04-25T01:57:12;96978.38;;;8.10;75.90
16030;BME280;34770;49.272;11.070;2023-04-25T01:59:37;96972.41;;;8.06;76.14
16030;BME280;34770;49.272;11.070;2023-04-25T02:02:03;96979.09;;;8.02;75.73
16030;BME280;34770;49.272;11.070;2023-04-25T02:04:29;96970.69;;;7.96;76.07
16030;BME280;34770;49.272;11.070;2023-04-25T02:06:55;96989.72;;;8.04;75.93
16030;BME280;34770;49.272;11.070;2023-04-25T02:09:21;96979.38;;;7.99;75.76
16030;BME280;34770;49.272;11.070;2023-04-25T02:11:46;96984.31;;;7.94;75.73
16030;BME280;34770;49.272;11.070;2023-04-25T02:14:12;96977.94;;;7.95;75.58
16030;BME280;34770;49.272;11.070;2023-04-25T02:16:37;96950.53;;;7.71;75.26
16030;BME280;34770;49.272;11.070;2023-04-25T02:19:05;96965.56;;;7.74;75.74
16030;BME280;34770;49.272;11.070;2023-04-25T02:21:31;96968.97;;;7.66;75.31
16030;BME280;34770;49.272;11.070;2023-04-25T02:23:57;96980.75;;;7.75;76.33
16030;BME280;34770;49.272;11.070;2023-04-25T02:26:22;96969.25;;;7.73;76.43
16030;BME280;34770;49.272;11.070;2023-04-25T02:28:49;96969.97;;;7.75;76.42
16030;BME280;34770;49.272;11.070;2023-04-25T02:31:16;96964.00;;;7.81;76.50
16030;BME280;34770;49.272;11.070;2023-04-25T02:33:42;96949.09;;;7.77;76.67
16030;BME280;34770;49.272;11.070;2023-04-25T02:36:08;96951.69;;;7.88;76.52
16030;BME280;34770;49.272;11.070;2023-04-25T02:38:33;96950.66;;;7.79;76.27
16030;BME280;34770;49.272;11.070;2023-04-25T02:40:59;96955.34;;;7.87;76.06
16030;BME280;34770;49.272;11.070;2023-04-25T02:43:24;96945.84;;;7.83;75.07
16030;BME280;34770;49.272;11.070;2023-04-25T02:45:50;96951.66;;;7.78;74.23
16030;BME280;34770;49.272;11.070;2023-04-25T02:48:15;96937.16;;;7.60;74.75
16030;BME280;34770;49.272;11.070;2023-04-25T02:50:41;96953.78;;;7.65;74.39
16030;BME280;34770;49.272;11.070;2023-04-25T02:53:06;96954.78;;;7.74;74.66
16030;BME280;34770;49.272;11.070;2023-04-25T02:55:32;96942.69;;;7.58;74.60
16030;BME280;34770;49.272;11.070;2023-04-25T02:57:57;96930.03;;;7.49;74.38
16030;BME280;34770;49.272;11.070;2023-04-25T03:00:23;96947.94;;;7.70;74.59
16030;BME280;34770;49.272;11.070;2023-04-25T03:02:48;96941.69;;;7.69;74.51
16030;BME280;34770;49.272;11.070;2023-04-25T03:05:14;96929.34;;;7.67;75.03
16030;BME280;34770;49.272;11.070;2023-04-25T03:07:39;96943.44;;;7.80;74.90
16030;BME280;34770;49.272;11.070;2023-04-25T03:10:08;96939.72;;;7.71;74.40
16030;BME280;34770;49.272;11.070;2023-04-25T03:12:33;96933.91;;;7.66;73.69
16030;BME280;34770;49.272;11.070;2023-04-25T03:14:59;96940.97;;;7.48;74.39
16030;BME280;34770;49.272;11.070;2023-04-25T03:17:24;96940.53;;;7.52;74.28
16030;BME280;34770;49.272;11.070;2023-04-25T03:19:50;96934.00;;;7.45;74.11
16030;BME280;34770;49.272;11.070;2023-04-25T03:22:15;96936.28;;;7.40;74.32
16030;BME280;34770;49.272;11.070;2023-04-25T03:24:40;96939.81;;;7.41;74.61
16030;BME280;34770;49.272;11.070;2023-04-25T03:27:06;96929.56;;;7.25;74.46
16030;BME280;34770;49.272;11.070;2023-04-25T03:29:31;96928.84;;;7.33;74.64
16030;BME280;34770;49.272;11.070;2023-04-25T03:31:57;96929.72;;;7.33;74.58
16030;BME280;34770;49.272;11.070;2023-04-25T03:34:23;96934.81;;;7.36;74.39
16030;BME280;34770;49.272;11.070;2023-04-25T03:36:49;96935.97;;;7.34;74.17
16030;BME280;34770;49.272;11.070;2023-04-25T03:39:15;96931.81;;;7.30;74.34
16030;BME280;34770;49.272;11.070;2023-04-25T03:41:41;96927.88;;;7.34;74.50
16030;BME280;34770;49.272;11.070;2023-04-25T03:44:06;96933.16;;;7.35;74.32
16030;BME280;34770;49.272;11.070;2023-04-25T03:46:32;96887.81;;;7.00;74.37
16030;BME280;34770;49.272;11.070;2023-04-25T03:48:58;96929.97;;;7.30;74.60
16030;BME280;34770;49.272;11.070;2023-04-25T03:51:25;96935.13;;;7.43;74.10
16030;BME280;34770;49.272;11.070;2023-04-25T03:53:51;96928.88;;;7.42;73.41
16030;BME280;34770;49.272;11.070;2023-04-25T03:56:18;96933.31;;;7.43;73.46
16030;BME280;34770;49.272;11.070;2023-04-25T03:58:44;96936.16;;;7.51;73.50
16030;BME280;34770;49.272;11.070;2023-04-25T04:01:09;96930.44;;;7.45;73.35
16030;BME280;34770;49.272;11.070;2023-04-25T04:03:35;96935.41;;;7.49;73.54
16030;BME280;34770;49.272;11.070;2023-04-25T04:06:03;96935.59;;;7.57;73.91
16030;BME280;34770;49.272;11.070;2023-04-25T04:08:29;96901.38;;;7.39;74.32
16030;BME280;34770;49.272;11.070;2023-04-25T04:10:56;96936.00;;;7.53;74.94
16030;BME280;34770;49.272;11.070;2023-04-25T04:13:22;96940.25;;;7.46;75.60
16030;BME280;34770;49.272;11.070;2023-04-25T04:15:47;96939.81;;;7.50;75.64
16030;BME280;34770;49.272;11.070;2023-04-25T04:18:13;96943.50;;;7.49;74.96
16030;BME280;34770;49.272;11.070;2023-04-25T04:20:39;96944.78;;;7.45;75.52
16030;BME280;34770;49.272;11.070;2023-04-25T04:23:04;96944.50;;;7.48;75.63
16030;BME280;34770;49.272;11.070;2023-04-25T04:25:31;96947.63;;;7.53;75.79
16030;BME280;34770;49.272;11.070;2023-04-25T04:27:56;96950.91;;;7.57;75.98
16030;BME280;34770;49.272;11.070;2023-04-25T04:30:23;96953.88;;;7.54;74.85
16030;BME280;34770;49.272;11.070;2023-04-25T04:32:50;96955.59;;;7.55;75.90
16030;BME280;34770;49.272;11.070;2023-04-25T04:35:16;96951.03;;;7.55;75.96
16030;BME280;34770;49.272;11.070;2023-04-25T04:37:41;96954.28;;;7.40;75.97
16030;BME280;34770;49.272;11.070;2023-04-25T04:40:09;96946.63;;;7.45;75.62
16030;BME280;34770;49.272;11.070;2023-04-25T04:42:35;96943.81;;;7.46;75.79
16030;BME280;34770;49.272;11.070;2023-04-25T04:45:01;96954.28;;;7.49;76.15
16030;BME280;34770;49.272;11.070;2023-04-25T04:47:28;96949.88;;;7.39;75.22
16030;BME280;34770;49.272;11.070;2023-04-25T04:49:56;96950.72;;;7.39;75.69
16030;BME280;34770;49.272;11.070;2023-04-25T04:52:22;96957.50;;;7.34;75.15
16030;BME280;34770;49.272;11.070;2023-04-25T04:54:48;96956.28;;;7.47;75.66
16030;BME280;34770;49.272;11.070;2023-04-25T04:57:13;96956.97;;;7.49;75.39
16030;BME280;34770;49.272;11.070;2023-04-25T04:59:39;96964.09;;;7.50;74.73
16030;BME280;34770;49.272;11.070;2023-04-25T05:02:05;96953.56;;;7.47;73.87
16030;BME280;34770;49.272;11.070;2023-04-25T05:04:30;96961.97;;;7.54;74.00
16030;BME280;34770;49.272;11.070;2023-04-25T05:06:56;96966.13;;;7.68;73.65
16030;BME280;34770;49.272;11.070;2023-04-25T05:09:22;96973.88;;;7.61;72.45
16030;BME280;34770;49.272;11.070;2023-04-25T05:11:51;96937.13;;;7.50;72.97
16030;BME280;34770;49.272;11.070;2023-04-25T05:14:17;96971.41;;;7.88;72.00
16030;BME280;34770;49.272;11.070;2023-04-25T05:16:43;96957.91;;;7.98;71.78
16030;BME280;34770;49.272;11.070;2023-04-25T05:19:09;96962.16;;;8.00;70.81
16030;BME280;34770;49.272;11.070;2023-04-25T05:21:34;96964.75;;;8.02;70.63
16030;BME280;34770;49.272;11.070;2023-04-25T05:24:01;96969.84;;;7.86;71.40
16030;BME280;34770;49.272;11.070;2023-04-25T05:26:27;96970.84;;;7.85;71.57
16030;BME280;34770;49.272;11.070;2023-04-25T05:28:58;96964.44;;;7.95;71.01
16030;BME280;34770;49.272;11.070;2023-04-25T05:31:25;96961.91;;;8.03;71.24
16030;BME280;34770;49.272;11.070;2023-04-25T05:33:51;96970.13;;;8.11;70.86
16030;BME280;34770;49.272;11.070;2023-04-25T05:36:18;96966.16;;;8.15;70.67
16030;BME280;34770;49.272;11.070;2023-04-25T05:38:45;96970.00;;;8.13;71.25
16030;BME280;34770;49.272;11.070;2023-04-25T05:43:36;96966.31;;;8.04;71.39
16030;BME280;34770;49.272;11.070;2023-04-25T05:46:02;96956.50;;;8.03;71.44
16030;BME280;34770;49.272;11.070;2023-04-25T05:48:28;96937.91;;;7.91;71.13
16030;BME280;34770;49.272;11.070;2023-04-25T05:50:55;96961.19;;;8.01;71.09
16030;BME280;34770;49.272;11.070;2023-04-25T05:53:21;96971.56;;;7.96;71.33
16030;BME280;34770;49.272;11.070;2023-04-25T05:55:47;96968.44;;;8.01;71.66
16030;BME280;34770;49.272;11.070;2023-04-25T05:58:16;96969.81;;;7.76;72.71
16030;BME280;34770;49.272;11.070;2023-04-25T06:00:44;96971.25;;;7.80;72.35
16030;BME280;34770;49.272;11.070;2023-04-25T06:03:12;96914.44;;;7.43;72.34
16030;BME280;34770;49.272;11.070;2023-04-25T06:05:41;96965.28;;;7.86;71.81
16030;BME280;34770;49.272;11.070;2023-04-25T06:08:08;96982.63;;;7.93;72.23
16030;BME280;34770;49.272;11.070;2023-04-25T06:10:34;96975.38;;;7.84;72.54
16030;BME280;34770;49.272;11.070;2023-04-25T06:12:59;96983.19;;;7.87;72.28
16030;BME280;34770;49.272;11.070;2023-04-25T06:15:25;96981.75;;;7.83;71.72
16030;BME280;34770;49.272;11.070;2023-04-25T06:17:51;96949.69;;;7.80;72.01
16030;BME280;34770;49.272;11.070;2023-04-25T06:20:16;96979.78;;;8.24;70.98
16030;BME280;34770;49.272;11.070;2023-04-25T06:22:42;96952.81;;;8.24;71.22
16030;BME280;34770;49.272;11.070;2023-04-25T06:25:08;96965.34;;;8.44;70.26
16030;BME280;34770;49.272;11.070;2023-04-25T06:27:34;96977.13;;;8.43;70.14
16030;BME280;34770;49.272;11.070;2023-04-25T06:29:59;96968.75;;;8.55;70.52
16030;BME280;34770;49.272;11.070;2023-04-25T06:32:25;96978.69;;;8.55;69.37
16030;BME280;34770;49.272;11.070;2023-04-25T06:34:52;96960.78;;;8.35;70.00
16030;BME280;34770;49.272;11.070;2023-04-25T06:37:18;96974.72;;;8.30;70.33
16030;BME280;34770;49.272;11.070;2023-04-25T06:39:44;96969.34;;;8.30;70.00
16030;BME280;34770;49.272;11.070;2023-04-25T06:42:09;96962.47;;;8.45;70.09
16030;BME280;34770;49.272;11.070;2023-04-25T06:44:35;96972.84;;;8.59;69.10
16030;BME280;34770;49.272;11.070;2023-04-25T06:47:01;96975.28;;;8.53;69.80
16030;BME280;34770;49.272;11.070;2023-04-25T06:49:26;96962.19;;;8.48;69.49
16030;BME280;34770;49.272;11.070;2023-04-25T06:51:52;96957.88;;;8.84;69.31
16030;BME280;34770;49.272;11.070;2023-04-25T06:54:17;96967.44;;;8.69;69.24
16030;BME280;34770;49.272;11.070;2023-04-25T06:56:42;96976.09;;;8.72;69.19
16030;BME280;34770;49.272;11.070;2023-04-25T06:59:08;96972.13;;;8.48;68.21
16030;BME280;34770;49.272;11.070;2023-04-25T07:01:34;96972.41;;;8.54;68.93
16030;BME280;34770;49.272;11.070;2023-04-25T07:04:00;96973.28;;;8.45;69.07
16030;BME280;34770;49.272;11.070;2023-04-25T07:06:26;96975.97;;;8.45;69.04
16030;BME280;34770;49.272;11.070;2023-04-25T07:08:53;96969.03;;;8.33;69.36
16030;BME280;34770;49.272;11.070;2023-04-25T07:11:18;96973.31;;;8.36;69.37
16030;BME280;34770;49.272;11.070;2023-04-25T07:13:44;96977.38;;;8.21;71.30
16030;BME280;34770;49.272;11.070;2023-04-25T07:16:09;96982.25;;;8.36;72.27
16030;BME280;34770;49.272;11.070;2023-04-25T07:18:35;96984.97;;;8.36;72.13
16030;BME280;34770;49.272;11.070;2023-04-25T07:21:00;96986.50;;;8.20;72.95
16030;BME280;34770;49.272;11.070;2023-04-25T07:23:26;96985.38;;;8.41;73.96
16030;BME280;34770;49.272;11.070;2023-04-25T07:25:51;96993.44;;;8.22;73.72
16030;BME280;34770;49.272;11.070;2023-04-25T07:28:17;96993.84;;;7.98;75.97
16030;BME280;34770;49.272;11.070;2023-04-25T07:30:43;96991.59;;;8.13;74.89
16030;BME280;34770;49.272;11.070;2023-04-25T07:33:08;97001.22;;;8.06;76.19
16030;BME280;34770;49.272;11.070;2023-04-25T07:35:34;97003.66;;;7.99;75.97
16030;BME280;34770;49.272;11.070;2023-04-25T07:38:01;96992.25;;;7.86;74.87
16030;BME280;34770;49.272;11.070;2023-04-25T07:40:26;96993.88;;;8.08;75.10
16030;BME280;34770;49.272;11.070;2023-04-25T07:42:52;96984.34;;;8.13;76.35
16030;BME280;34770;49.272;11.070;2023-04-25T07:45:17;97002.34;;;8.03;75.55
16030;BME280;34770;49.272;11.070;2023-04-25T07:47:43;96998.66;;;7.95;75.51
16030;BME280;34770;49.272;11.070;2023-04-25T07:50:09;96999.09;;;7.90;76.53
16030;BME280;34770;49.272;11.070;2023-04-25T07:52:35;97014.44;;;7.99;75.13
16030;BME280;34770;49.272;11.070;2023-04-25T07:55:01;97009.84;;;7.81;74.88
16030;BME280;34770;49.272;11.070;2023-04-25T07:57:26;97008.09;;;7.61;74.04
16030;BME280;34770;49.272;11.070;2023-04-25T07:59:52;97032.94;;;7.64;74.81
16030;BME280;34770;49.272;11.070;2023-04-25T08:02:17;97024.59;;;7.37;75.91
16030;BME280;34770;49.272;11.070;2023-04-25T08:04:43;97032.44;;;7.49;75.92
16030;BME280;34770;49.272;11.070;2023-04-25T08:07:08;97032.75;;;7.46;74.73
16030;BME280;34770;49.272;11.070;2023-04-25T08:09:34;97020.47;;;7.03;76.50
16030;BME280;34770;49.272;11.070;2023-04-25T08:12:02;97048.88;;;7.16;76.21
16030;BME280;34770;49.272;11.070;2023-04-25T08:14:28;97050.25;;;7.31;76.45
16030;BME280;34770;49.272;11.070;2023-04-25T08:16:56;97060.06;;;7.42;74.29
16030;BME280;34770;49.272;11.070;2023-04-25T08:19:21;97064.97;;;7.27;75.54
16030;BME280;34770;49.272;11.070;2023-04-25T08:21:49;97065.63;;;7.20;75.73
16030;BME280;34770;49.272;11.070;2023-04-25T08:24:17;97074.34;;;7.33;75.68
16030;BME280;34770;49.272;11.070;2023-04-25T08:26:42;97073.28;;;6.94;75.07
16030;BME280;34770;49.272;11.070;2023-04-25T08:29:08;97065.44;;;7.32;74.99
16030;BME280;34770;49.272;11.070;2023-04-25T08:31:33;97077.00;;;7.53;74.24
16030;BME280;34770;49.272;11.070;2023-04-25T08:33:59;97067.88;;;7.35;72.55
16030;BME280;34770;49.272;11.070;2023-04-25T08:36:24;97065.34;;;7.43;71.04
16030;BME280;34770;49.272;11.070;2023-04-25T08:38:50;97062.81;;;7.51;71.75
16030;BME280;34770;49.272;11.070;2023-04-25T08:41:16;97081.16;;;8.07;72.29
16030;BME280;34770;49.272;11.070;2023-04-25T08:43:42;97091.09;;;8.56;71.72
16030;BME280;34770;49.272;11.070;2023-04-25T08:46:09;97076.59;;;8.66;67.99
16030;BME280;34770;49.272;11.070;2023-04-25T08:48:37;97082.69;;;8.49;67.70
16030;BME280;34770;49.272;11.070;2023-04-25T08:51:03;97072.31;;;8.45;66.58
16030;BME280;34770;49.272;11.070;2023-04-25T08:53:32;97084.84;;;8.55;67.58
16030;BME280;34770;49.272;11.070;2023-04-25T08:56:00;97087.94;;;8.51;68.39
16030;BME280;34770;49.272;11.070;2023-04-25T08:58:29;97078.25;;;9.06;66.49
16030;BME280;34770;49.272;11.070;2023-04-25T09:00:55;97089.34;;;8.45;65.87
16030;BME280;34770;49.272;11.070;2023-04-25T09:03:21;97084.97;;;8.83;64.27
16030;BME280;34770;49.272;11.070;2023-04-25T09:05:46;97080.56;;;9.47;65.48
16030;BME280;34770;49.272;11.070;2023-04-25T09:08:12;97060.06;;;9.54;64.57
16030;BME280;34770;49.272;11.070;2023-04-25T09:10:38;97071.31;;;10.14;63.79
16030;BME280;34770;49.272;11.070;2023-04-25T09:13:14;97076.03;;;10.92;64.58
16030;BME280;34770;49.272;11.070;2023-04-25T09:16:06;97086.28;;;11.24;60.40
16030;BME280;34770;49.272;11.070;2023-04-25T09:18:34;97091.28;;;10.75;58.39
16030;BME280;34770;49.272;11.070;2023-04-25T09:21:08;97086.84;;;9.84;60.27
16030;BME280;34770;49.272;11.070;2023-04-25T09:23:43;97074.94;;;10.32;61.53
16030;BME280;34770;49.272;11.070;2023-04-25T09:26:09;97083.91;;;11.46;63.47
16030;BME280;34770;49.272;11.070;2023-04-25T09:28:35;97093.16;;;11.36;57.71
16030;BME280;34770;49.272;11.070;2023-04-25T09:31:01;97095.94;;;10.83;59.65
16030;BME280;34770;49.272;11.070;2023-04-25T09:33:31;97105.34;;;11.32;59.31
16030;BME280;34770;49.272;11.070;2023-04-25T09:36:05;97081.78;;;10.71;58.73
16030;BME280;34770;49.272;11.070;2023-04-25T09:38:43;97101.09;;;10.41;60.54
16030;BME280;34770;49.272;11.070;2023-04-25T09:41:09;97099.03;;;10.25;61.32
16030;BME280;34770;49.272;11.070;2023-04-25T09:43:35;97099.94;;;10.43;62.90
16030;BME280;34770;49.272;11.070;2023-04-25T09:46:01;97101.63;;;10.27;63.12
16030;BME280;34770;49.272;11.070;2023-04-25T09:48:28;97111.38;;;10.37;61.54
16030;BME280;34770;49.272;11.070;2023-04-25T09:53:28;97108.78;;;9.81;60.89
16030;BME280;34770;49.272;11.070;2023-04-25T09:55:55;97106.69;;;10.03;63.41
16030;BME280;34770;49.272;11.070;2023-04-25T09:58:23;97115.66;;;10.13;62.43
16030;BME280;34770;49.272;11.070;2023-04-25T10:00:51;97092.38;;;10.82;59.69
16030;BME280;34770;49.272;11.070;2023-04-25T10:03:20;97100.00;;;11.91;58.38
16030;BME280;34770;49.272;11.070;2023-04-25T10:05:48;97112.34;;;12.19;55.83
16030;BME280;34770;49.272;11.070;2023-04-25T10:08:15;97102.44;;;12.02;54.69
16030;BME280;34770;49.272;11.070;2023-04-25T10:10:42;97089.19;;;11.74;54.10
16030;BME280;34770;49.272;11.070;2023-04-25T10:13:08;97091.31;;;11.62;55.81
16030;BME280;34770;49.272;11.070;2023-04-25T10:15:35;97097.84;;;12.03;52.51
16030;BME280;34770;49.272;11.070;2023-04-25T10:18:01;97089.63;;;11.87;54.67
16030;BME280;34770;49.272;11.070;2023-04-25T10:20:28;97086.47;;;11.99;53.85
16030;BME280;34770;49.272;11.070;2023-04-25T10:22:55;97092.81;;;11.13;54.13
16030;BME280;34770;49.272;11.070;2023-04-25T10:25:23;97083.25;;;10.83;54.58
16030;BME280;34770;49.272;11.070;2023-04-25T10:27:53;97096.41;;;10.61;54.61
16030;BME280;34770;49.272;11.070;2023-04-25T10:30:18;97097.41;;;10.15;56.11
16030;BME280;34770;49.272;11.070;2023-04-25T10:32:45;97107.56;;;10.30;57.37
16030;BME280;34770;49.272;11.070;2023-04-25T10:35:14;97098.06;;;11.15;55.81
16030;BME280;34770;49.272;11.070;2023-04-25T10:38:00;97090.78;;;11.58;53.57
16030;BME280;34770;49.272;11.070;2023-04-25T10:40:28;97088.19;;;11.75;52.10
16030;BME280;34770;49.272;11.070;2023-04-25T10:42:54;97091.34;;;11.96;52.19
16030;BME280;34770;49.272;11.070;2023-04-25T10:45:23;97093.13;;;11.53;52.72
16030;BME280;34770;49.272;11.070;2023-04-25T10:47:48;97082.69;;;11.41;53.25
16030;BME280;34770;49.272;11.070;2023-04-25T10:50:14;97093.16;;;11.36;51.12
16030;BME280;34770;49.272;11.070;2023-04-25T10:52:42;97087.97;;;11.94;50.05
16030;BME280;34770;49.272;11.070;2023-04-25T10:55:08;97083.31;;;12.70;50.38
16030;BME280;34770;49.272;11.070;2023-04-25T10:57:39;97087.03;;;13.82;47.33
16030;BME280;34770;49.272;11.070;2023-04-25T11:00:13;97080.31;;;13.29;47.62
16030;BME280;34770;49.272;11.070;2023-04-25T11:02:43;97084.38;;;12.27;48.82
16030;BME280;34770;49.272;11.070;2023-04-25T11:05:20;97076.69;;;12.72;47.46
16030;BME280;34770;49.272;11.070;2023-04-25T11:07:50;97081.84;;;13.40;47.88
16030;BME280;34770;49.272;11.070;2023-04-25T11:10:29;97075.03;;;12.96;nan
16030;BME280;34770;49.272;11.070;2023-04-25T11:12:56;97083.31;;;12.78;47.34
16030;BME280;34770;49.272;11.070;2023-04-25T11:15:21;97079.94;;;12.18;47.96
16030;BME280;34770;49.272;11.070;2023-04-25T11:17:47;97086.91;;;11.87;47.81
16030;BME280;34770;49.272;11.070;2023-04-25T11:20:13;97092.75;;;11.48;50.26
16030;BME280;34770;49.272;11.070;2023-04-25T11:22:40;97092.19;;;11.19;50.50
16030;BME280;34770;49.272;11.070;2023-04-25T11:25:10;97095.84;;;11.10;50.83
16030;BME280;34770;49.272;11.070;2023-04-25T11:27:52;97095.09;;;11.00;51.17
16030;BME280;34770;49.272;11.070;2023-04-25T11:30:19;97099.66;;;11.43;52.27
16030;BME280;34770;49.272;11.070;2023-04-25T11:32:45;97101.22;;;11.71;51.66
16030;BME280;34770;49.272;11.070;2023-04-25T11:35:11;97094.50;;;11.57;50.88
16030;BME280;34770;49.272;11.070;2023-04-25T11:37:42;97083.44;;;11.51;50.45
16030;BME280;34770;49.272;11.070;2023-04-25T11:40:08;97092.97;;;11.55;50.44
16030;BME280;34770;49.272;11.070;2023-04-25T11:42:44;97087.34;;;11.74;49.62
16030;BME280;34770;49.272;11.070;2023-04-25T11:45:10;97094.03;;;11.36;49.82
16030;BME280;34770;49.272;11.070;2023-04-25T11:47:36;97090.66;;;11.17;47.86
16030;BME280;34770;49.272;11.070;2023-04-25T11:50:06;97107.00;;;11.07;48.78
16030;BME280;34770;49.272;11.070;2023-04-25T11:52:42;97116.38;;;11.56;49.42
16030;BME280;34770;49.272;11.070;2023-04-25T11:55:09;97113.22;;;11.43;49.34
16030;BME280;34770;49.272;11.070;2023-04-25T11:57:37;97098.06;;;11.76;48.66
16030;BME280;34770;49.272;11.070;2023-04-25T12:00:18;97112.91;;;11.46;50.08
16030;BME280;34770;49.272;11.070;2023-04-25T12:02:55;97120.09;;;11.55;49.31
16030;BME280;34770;49.272;11.070;2023-04-25T12:05:24;97113.97;;;12.04;49.96
16030;BME280;34770;49.272;11.070;2023-04-25T12:07:50;97117.00;;;12.01;50.36
16030;BME280;34770;49.272;11.070;2023-04-25T12:10:17;97094.81;;;12.06;49.00
16030;BME280;34770;49.272;11.070;2023-04-25T12:12:45;97130.56;;;12.01;49.88
16030;BME280;34770;49.272;11.070;2023-04-25T12:15:24;97125.66;;;11.97;49.14
16030;BME280;34770;49.272;11.070;2023-04-25T12:17:52;97114.78;;;12.31;49.23
16030;BME280;34770;49.272;11.070;2023-04-25T12:20:20;97131.84;;;12.57;47.37
16030;BME280;34770;49.272;11.070;2023-04-25T12:22:48;97125.81;;;11.95;47.54
16030;BME280;34770;49.272;11.070;2023-04-25T12:25:43;97126.47;;;11.89;46.72
16030;BME280;34770;49.272;11.070;2023-04-25T12:28:19;97128.31;;;12.72;46.00
16030;BME280;34770;49.272;11.070;2023-04-25T12:33:21;97127.47;;;12.72;46.89
16030;BME280;34770;49.272;11.070;2023-04-25T12:35:47;97140.28;;;12.96;45.73
16030;BME280;34770;49.272;11.070;2023-04-25T12:40:48;97142.34;;;12.10;47.21
16030;BME280;34770;49.272;11.070;2023-04-25T12:43:14;97145.97;;;11.67;47.33
16030;BME280;34770;49.272;11.070;2023-04-25T12:45:39;97151.13;;;11.35;48.25
16030;BME280;34770;49.272;11.070;2023-04-25T12:48:05;97147.53;;;11.52;48.36
16030;BME280;34770;49.272;11.070;2023-04-25T12:50:32;97158.56;;;11.50;48.00
16030;BME280;34770;49.272;11.070;2023-04-25T12:53:00;97160.34;;;11.85;49.08
16030;BME280;34770;49.272;11.070;2023-04-25T12:55:27;97093.22;;;11.44;47.66
16030;BME280;34770;49.272;11.070;2023-04-25T12:57:53;97152.78;;;11.97;46.98
16030;BME280;34770;49.272;11.070;2023-04-25T13:00:19;97158.41;;;11.95;46.99
16030;BME280;34770;49.272;11.070;2023-04-25T13:02:45;97139.06;;;12.32;47.02
16030;BME280;34770;49.272;11.070;2023-04-25T13:05:41;97146.97;;;12.17;46.67
16030;BME280;34770;49.272;11.070;2023-04-25T13:08:07;97129.63;;;11.85;46.33